Omaha, Nebraska
Current Conditions -  °F | °C
As of 11:52 AM on Thursday 27 Nov 2014 (Local Time) from KOMA Reporting Station
Overcast Overcast  
Wind Chill: -8°   Ceiling: 5500
Heat Index: -8°   Visibility: 10mi
Dew Point: -17°   Wind: 3mph
Humidity: 48%   Direction: 120°ESE
Pressure: 30.52"   Gusts: NA
Location:  41.26°N, 95.94°W
Report Text: KOMA 271752Z 12003KT 10SM SCT044 OVC055 M08/M17 A3052 RMK AO2 SLP350 T10781172 11078 21089 58012
Loading
Personal Weather Stations






























Interactive Weather Map New forecast layout! Learn more

10-Day Weather Forecast

Advertisements
Track Severe Weather on mobile